Terminal Aerodrome Forecast
Issued by NWS Charleston, SC

Home | Current Version | Previous Version | Text Only | Print | Product List | Glossary On
Versions: 1 2 3 4 5 6 7 8 9 10 11 12 13
000
FTUS42 KCHS 230500
TAFSAV
TAF
KSAV 230520Z 2306/2406 07008KT P6SM -RA SCT025 BKN070
     FM230900 08008KT 4SM -RA BR SCT005 BKN015
     FM231100 09008KT 2SM RA BR SCT004 OVC007 WS020/14040KT
     FM231600 18015G25KT P6SM VCSH SCT005 BKN020
     FM232200 19012G20KT 5SM -SHRA BR BKN020=

USA.gov is the U.S. government's official web portal to all federal, state and local government web resources and services.